sensor_id;sensor_type;location;lat;lon;timestamp;P1;durP1;ratioP1;P2;durP2;ratioP2
146;SDS011;45999;48.808;9.182;2023-08-12T00:01:33;5.27;;;4.70;;
146;SDS011;45999;48.808;9.182;2023-08-12T00:04:00;5.13;;;4.50;;
146;SDS011;45999;48.808;9.182;2023-08-12T00:06:26;5.83;;;5.17;;
146;SDS011;45999;48.808;9.182;2023-08-12T00:08:53;5.37;;;4.90;;
146;SDS011;45999;48.808;9.182;2023-08-12T00:11:19;5.87;;;4.90;;
146;SDS011;45999;48.808;9.182;2023-08-12T00:13:45;5.63;;;4.60;;
146;SDS011;45999;48.808;9.182;2023-08-12T00:16:12;5.87;;;5.27;;
146;SDS011;45999;48.808;9.182;2023-08-12T00:18:38;6.00;;;5.43;;
146;SDS011;45999;48.808;9.182;2023-08-12T00:21:07;6.57;;;5.00;;
146;SDS011;45999;48.808;9.182;2023-08-12T00:23:37;5.90;;;5.20;;
146;SDS011;45999;48.808;9.182;2023-08-12T00:26:04;6.93;;;5.33;;
146;SDS011;45999;48.808;9.182;2023-08-12T00:28:30;6.50;;;5.17;;
146;SDS011;45999;48.808;9.182;2023-08-12T00:30:57;7.60;;;4.97;;
146;SDS011;45999;48.808;9.182;2023-08-12T00:33:23;6.00;;;5.40;;
146;SDS011;45999;48.808;9.182;2023-08-12T00:35:50;7.47;;;5.43;;
146;SDS011;45999;48.808;9.182;2023-08-12T00:38:16;6.93;;;5.23;;
146;SDS011;45999;48.808;9.182;2023-08-12T00:40:42;5.57;;;5.07;;
146;SDS011;45999;48.808;9.182;2023-08-12T00:43:09;5.90;;;5.13;;
146;SDS011;45999;48.808;9.182;2023-08-12T00:45:36;6.10;;;5.40;;
146;SDS011;45999;48.808;9.182;2023-08-12T00:48:03;5.93;;;5.10;;
146;SDS011;45999;48.808;9.182;2023-08-12T00:50:30;6.57;;;5.37;;
146;SDS011;45999;48.808;9.182;2023-08-12T00:52:58;5.67;;;5.17;;
146;SDS011;45999;48.808;9.182;2023-08-12T00:55:25;9.00;;;5.43;;
146;SDS011;45999;48.808;9.182;2023-08-12T00:57:51;5.83;;;5.20;;
146;SDS011;45999;48.808;9.182;2023-08-12T01:00:18;5.33;;;4.77;;
146;SDS011;45999;48.808;9.182;2023-08-12T01:02:46;5.90;;;5.40;;
146;SDS011;45999;48.808;9.182;2023-08-12T01:05:14;7.37;;;5.43;;
146;SDS011;45999;48.808;9.182;2023-08-12T01:07:42;5.93;;;5.43;;
146;SDS011;45999;48.808;9.182;2023-08-12T01:10:10;5.90;;;5.20;;
146;SDS011;45999;48.808;9.182;2023-08-12T01:15:47;6.50;;;5.87;;
146;SDS011;45999;48.808;9.182;2023-08-12T01:18:18;6.70;;;5.50;;
146;SDS011;45999;48.808;9.182;2023-08-12T01:20:46;7.33;;;6.30;;
146;SDS011;45999;48.808;9.182;2023-08-12T01:23:13;7.90;;;5.93;;
146;SDS011;45999;48.808;9.182;2023-08-12T01:25:41;6.80;;;6.13;;
146;SDS011;45999;48.808;9.182;2023-08-12T01:28:08;7.67;;;5.97;;
146;SDS011;45999;48.808;9.182;2023-08-12T01:30:35;8.30;;;6.03;;
146;SDS011;45999;48.808;9.182;2023-08-12T01:33:10;8.27;;;6.07;;
146;SDS011;45999;48.808;9.182;2023-08-12T01:35:49;6.83;;;5.40;;
146;SDS011;45999;48.808;9.182;2023-08-12T01:38:19;7.07;;;6.37;;
146;SDS011;45999;48.808;9.182;2023-08-12T01:40:49;7.07;;;5.90;;
146;SDS011;45999;48.808;9.182;2023-08-12T01:43:18;7.43;;;6.10;;
146;SDS011;45999;48.808;9.182;2023-08-12T01:45:44;6.27;;;5.67;;
146;SDS011;45999;48.808;9.182;2023-08-12T01:48:11;6.53;;;5.93;;
146;SDS011;45999;48.808;9.182;2023-08-12T01:50:37;7.20;;;5.97;;
146;SDS011;45999;48.808;9.182;2023-08-12T01:53:04;5.97;;;5.37;;
146;SDS011;45999;48.808;9.182;2023-08-12T01:55:30;6.40;;;5.70;;
146;SDS011;45999;48.808;9.182;2023-08-12T01:57:56;6.63;;;5.40;;
146;SDS011;45999;48.808;9.182;2023-08-12T02:00:23;8.17;;;5.10;;
146;SDS011;45999;48.808;9.182;2023-08-12T02:02:49;5.93;;;5.43;;
146;SDS011;45999;48.808;9.182;2023-08-12T02:05:15;6.17;;;5.57;;
146;SDS011;45999;48.808;9.182;2023-08-12T02:07:42;6.00;;;4.90;;
146;SDS011;45999;48.808;9.182;2023-08-12T02:10:08;5.87;;;5.27;;
146;SDS011;45999;48.808;9.182;2023-08-12T02:12:35;5.90;;;5.30;;
146;SDS011;45999;48.808;9.182;2023-08-12T02:15:01;6.37;;;5.00;;
146;SDS011;45999;48.808;9.182;2023-08-12T02:17:27;7.23;;;5.40;;
146;SDS011;45999;48.808;9.182;2023-08-12T02:19:54;8.13;;;6.03;;
146;SDS011;45999;48.808;9.182;2023-08-12T02:22:21;7.23;;;5.40;;
146;SDS011;45999;48.808;9.182;2023-08-12T02:24:47;7.27;;;5.57;;
146;SDS011;45999;48.808;9.182;2023-08-12T02:27:14;6.13;;;5.53;;
146;SDS011;45999;48.808;9.182;2023-08-12T02:29:40;8.67;;;5.50;;
146;SDS011;45999;48.808;9.182;2023-08-12T02:32:07;6.00;;;5.50;;
146;SDS011;45999;48.808;9.182;2023-08-12T02:34:33;6.27;;;5.17;;
146;SDS011;45999;48.808;9.182;2023-08-12T02:36:59;6.40;;;5.70;;
146;SDS011;45999;48.808;9.182;2023-08-12T02:39:26;6.03;;;4.93;;
146;SDS011;45999;48.808;9.182;2023-08-12T02:41:52;5.87;;;5.30;;
146;SDS011;45999;48.808;9.182;2023-08-12T02:44:18;5.77;;;5.27;;
146;SDS011;45999;48.808;9.182;2023-08-12T02:46:45;6.10;;;5.50;;
146;SDS011;45999;48.808;9.182;2023-08-12T02:49:11;6.77;;;5.27;;
146;SDS011;45999;48.808;9.182;2023-08-12T02:51:38;5.90;;;5.40;;
146;SDS011;45999;48.808;9.182;2023-08-12T02:54:04;5.93;;;5.33;;
146;SDS011;45999;48.808;9.182;2023-08-12T02:56:31;5.60;;;5.10;;
146;SDS011;45999;48.808;9.182;2023-08-12T02:58:57;6.27;;;5.57;;
146;SDS011;45999;48.808;9.182;2023-08-12T03:01:23;7.27;;;5.03;;
146;SDS011;45999;48.808;9.182;2023-08-12T03:03:50;5.90;;;4.97;;
146;SDS011;45999;48.808;9.182;2023-08-12T03:06:16;5.53;;;5.00;;
146;SDS011;45999;48.808;9.182;2023-08-12T03:08:43;6.00;;;5.40;;
146;SDS011;45999;48.808;9.182;2023-08-12T03:11:09;5.50;;;5.00;;
146;SDS011;45999;48.808;9.182;2023-08-12T03:13:36;5.40;;;4.90;;
146;SDS011;45999;48.808;9.182;2023-08-12T03:16:02;6.60;;;6.00;;
146;SDS011;45999;48.808;9.182;2023-08-12T03:18:29;6.60;;;4.93;;
146;SDS011;45999;48.808;9.182;2023-08-12T03:20:55;5.47;;;4.97;;
146;SDS011;45999;48.808;9.182;2023-08-12T03:23:21;5.67;;;5.17;;
146;SDS011;45999;48.808;9.182;2023-08-12T03:25:48;5.80;;;5.23;;
146;SDS011;45999;48.808;9.182;2023-08-12T03:28:14;5.67;;;4.80;;
146;SDS011;45999;48.808;9.182;2023-08-12T03:30:42;5.73;;;5.13;;
146;SDS011;45999;48.808;9.182;2023-08-12T03:33:08;5.43;;;4.90;;
146;SDS011;45999;48.808;9.182;2023-08-12T03:35:34;7.10;;;4.97;;
146;SDS011;45999;48.808;9.182;2023-08-12T03:38:01;6.47;;;4.80;;
146;SDS011;45999;48.808;9.182;2023-08-12T03:40:27;6.27;;;4.70;;
146;SDS011;45999;48.808;9.182;2023-08-12T03:42:53;7.53;;;5.27;;
146;SDS011;45999;48.808;9.182;2023-08-12T03:45:20;6.30;;;5.03;;
146;SDS011;45999;48.808;9.182;2023-08-12T03:47:46;5.17;;;4.57;;
146;SDS011;45999;48.808;9.182;2023-08-12T03:50:12;7.17;;;4.87;;
146;SDS011;45999;48.808;9.182;2023-08-12T03:52:39;7.43;;;5.10;;
146;SDS011;45999;48.808;9.182;2023-08-12T03:55:05;5.00;;;4.60;;
146;SDS011;45999;48.808;9.182;2023-08-12T03:57:32;6.40;;;5.10;;
146;SDS011;45999;48.808;9.182;2023-08-12T03:59:58;5.73;;;5.13;;
146;SDS011;45999;48.808;9.182;2023-08-12T04:02:25;5.10;;;4.60;;
146;SDS011;45999;48.808;9.182;2023-08-12T04:04:51;4.87;;;4.47;;
146;SDS011;45999;48.808;9.182;2023-08-12T04:07:18;5.47;;;4.67;;
146;SDS011;45999;48.808;9.182;2023-08-12T04:09:44;6.97;;;4.93;;
146;SDS011;45999;48.808;9.182;2023-08-12T04:12:10;5.83;;;4.83;;
146;SDS011;45999;48.808;9.182;2023-08-12T04:14:37;5.40;;;4.90;;
146;SDS011;45999;48.808;9.182;2023-08-12T04:17:05;6.33;;;5.00;;
146;SDS011;45999;48.808;9.182;2023-08-12T04:19:32;5.47;;;4.87;;
146;SDS011;45999;48.808;9.182;2023-08-12T04:21:58;6.13;;;4.93;;
146;SDS011;45999;48.808;9.182;2023-08-12T04:24:24;5.80;;;4.70;;
146;SDS011;45999;48.808;9.182;2023-08-12T04:26:51;5.93;;;4.97;;
146;SDS011;45999;48.808;9.182;2023-08-12T04:29:17;6.50;;;4.93;;
146;SDS011;45999;48.808;9.182;2023-08-12T04:31:44;4.97;;;4.47;;
146;SDS011;45999;48.808;9.182;2023-08-12T04:34:10;5.50;;;5.00;;
146;SDS011;45999;48.808;9.182;2023-08-12T04:36:36;6.07;;;4.77;;
146;SDS011;45999;48.808;9.182;2023-08-12T04:39:03;5.23;;;4.77;;
146;SDS011;45999;48.808;9.182;2023-08-12T04:41:29;5.00;;;4.53;;
146;SDS011;45999;48.808;9.182;2023-08-12T04:43:55;5.97;;;5.13;;
146;SDS011;45999;48.808;9.182;2023-08-12T04:46:22;6.03;;;4.80;;
146;SDS011;45999;48.808;9.182;2023-08-12T04:48:48;5.47;;;4.73;;
146;SDS011;45999;48.808;9.182;2023-08-12T04:51:15;6.73;;;5.00;;
146;SDS011;45999;48.808;9.182;2023-08-12T04:53:41;5.37;;;4.97;;
146;SDS011;45999;48.808;9.182;2023-08-12T04:56:07;5.67;;;4.87;;
146;SDS011;45999;48.808;9.182;2023-08-12T04:58:34;5.10;;;4.50;;
146;SDS011;45999;48.808;9.182;2023-08-12T05:01:00;5.93;;;4.77;;
146;SDS011;45999;48.808;9.182;2023-08-12T05:03:27;5.77;;;5.23;;
146;SDS011;45999;48.808;9.182;2023-08-12T05:05:54;5.73;;;5.23;;
146;SDS011;45999;48.808;9.182;2023-08-12T05:08:20;4.80;;;4.43;;
146;SDS011;45999;48.808;9.182;2023-08-12T05:10:47;4.90;;;4.50;;
146;SDS011;45999;48.808;9.182;2023-08-12T05:13:14;5.03;;;4.53;;
146;SDS011;45999;48.808;9.182;2023-08-12T05:15:44;5.60;;;5.10;;
146;SDS011;45999;48.808;9.182;2023-08-12T05:18:12;5.10;;;4.60;;
146;SDS011;45999;48.808;9.182;2023-08-12T05:20:39;5.90;;;5.40;;
146;SDS011;45999;48.808;9.182;2023-08-12T05:23:06;6.07;;;5.23;;
146;SDS011;45999;48.808;9.182;2023-08-12T05:25:33;5.70;;;5.10;;
146;SDS011;45999;48.808;9.182;2023-08-12T05:27:59;5.20;;;4.80;;
146;SDS011;45999;48.808;9.182;2023-08-12T05:30:25;6.50;;;5.33;;
146;SDS011;45999;48.808;9.182;2023-08-12T05:32:52;6.33;;;5.17;;
146;SDS011;45999;48.808;9.182;2023-08-12T05:35:18;5.77;;;5.27;;
146;SDS011;45999;48.808;9.182;2023-08-12T05:37:44;5.67;;;5.17;;
146;SDS011;45999;48.808;9.182;2023-08-12T05:40:11;6.57;;;5.40;;
146;SDS011;45999;48.808;9.182;2023-08-12T05:42:37;5.60;;;5.10;;
146;SDS011;45999;48.808;9.182;2023-08-12T05:45:04;6.03;;;5.43;;
146;SDS011;45999;48.808;9.182;2023-08-12T05:47:30;5.97;;;5.47;;
146;SDS011;45999;48.808;9.182;2023-08-12T05:49:57;7.80;;;5.30;;
146;SDS011;45999;48.808;9.182;2023-08-12T05:52:23;5.90;;;5.50;;
146;SDS011;45999;48.808;9.182;2023-08-12T05:54:50;8.27;;;5.93;;
146;SDS011;45999;48.808;9.182;2023-08-12T05:57:16;6.07;;;5.57;;
146;SDS011;45999;48.808;9.182;2023-08-12T05:59:42;6.93;;;5.63;;
146;SDS011;45999;48.808;9.182;2023-08-12T06:02:09;7.27;;;5.97;;
146;SDS011;45999;48.808;9.182;2023-08-12T06:04:35;6.63;;;5.97;;
146;SDS011;45999;48.808;9.182;2023-08-12T06:07:02;6.67;;;5.93;;
146;SDS011;45999;48.808;9.182;2023-08-12T06:09:28;6.43;;;5.83;;
146;SDS011;45999;48.808;9.182;2023-08-12T06:11:54;6.90;;;6.30;;
146;SDS011;45999;48.808;9.182;2023-08-12T06:14:21;7.30;;;6.07;;
146;SDS011;45999;48.808;9.182;2023-08-12T06:16:47;8.17;;;5.73;;
146;SDS011;45999;48.808;9.182;2023-08-12T06:19:13;6.83;;;6.10;;
146;SDS011;45999;48.808;9.182;2023-08-12T06:21:40;7.73;;;6.20;;
146;SDS011;45999;48.808;9.182;2023-08-12T06:24:06;6.50;;;5.90;;
146;SDS011;45999;48.808;9.182;2023-08-12T06:26:33;6.10;;;5.60;;
146;SDS011;45999;48.808;9.182;2023-08-12T06:28:59;8.00;;;5.87;;
146;SDS011;45999;48.808;9.182;2023-08-12T06:31:25;6.53;;;5.93;;
146;SDS011;45999;48.808;9.182;2023-08-12T06:33:52;7.10;;;6.50;;
146;SDS011;45999;48.808;9.182;2023-08-12T06:36:18;6.93;;;5.70;;
146;SDS011;45999;48.808;9.182;2023-08-12T06:38:44;6.20;;;5.47;;
146;SDS011;45999;48.808;9.182;2023-08-12T06:41:11;6.23;;;5.63;;
146;SDS011;45999;48.808;9.182;2023-08-12T06:43:37;5.90;;;5.40;;
146;SDS011;45999;48.808;9.182;2023-08-12T06:46:03;6.43;;;5.67;;
146;SDS011;45999;48.808;9.182;2023-08-12T06:48:30;6.40;;;5.80;;
146;SDS011;45999;48.808;9.182;2023-08-12T06:50:56;6.53;;;5.80;;
146;SDS011;45999;48.808;9.182;2023-08-12T06:53:24;6.37;;;5.73;;
146;SDS011;45999;48.808;9.182;2023-08-12T06:55:52;7.10;;;5.40;;
146;SDS011;45999;48.808;9.182;2023-08-12T06:58:18;7.50;;;5.63;;
146;SDS011;45999;48.808;9.182;2023-08-12T07:00:44;7.30;;;5.38;;
146;SDS011;45999;48.808;9.182;2023-08-12T07:03:11;6.00;;;5.47;;
146;SDS011;45999;48.808;9.182;2023-08-12T07:05:37;5.90;;;5.30;;
146;SDS011;45999;48.808;9.182;2023-08-12T07:08:03;6.88;;;5.82;;
146;SDS011;45999;48.808;9.182;2023-08-12T07:10:30;6.25;;;5.30;;
146;SDS011;45999;48.808;9.182;2023-08-12T07:12:56;10.48;;;5.55;;
146;SDS011;45999;48.808;9.182;2023-08-12T07:15:23;6.68;;;6.07;;
146;SDS011;45999;48.808;9.182;2023-08-12T07:17:49;5.82;;;5.30;;
146;SDS011;45999;48.808;9.182;2023-08-12T07:20:15;7.18;;;5.07;;
146;SDS011;45999;48.808;9.182;2023-08-12T07:22:42;6.13;;;5.60;;
146;SDS011;45999;48.808;9.182;2023-08-12T07:25:08;5.25;;;4.63;;
146;SDS011;45999;48.808;9.182;2023-08-12T07:27:35;6.05;;;5.07;;
146;SDS011;45999;48.808;9.182;2023-08-12T07:30:01;5.28;;;4.82;;
146;SDS011;45999;48.808;9.182;2023-08-12T07:32:28;5.68;;;4.75;;
146;SDS011;45999;48.808;9.182;2023-08-12T07:34:55;5.70;;;5.20;;
146;SDS011;45999;48.808;9.182;2023-08-12T07:37:21;5.47;;;4.93;;
146;SDS011;45999;48.808;9.182;2023-08-12T07:39:47;5.00;;;4.60;;
146;SDS011;45999;48.808;9.182;2023-08-12T07:42:14;6.03;;;5.40;;
146;SDS011;45999;48.808;9.182;2023-08-12T07:44:40;5.40;;;4.88;;
146;SDS011;45999;48.808;9.182;2023-08-12T07:47:06;7.03;;;5.10;;
146;SDS011;45999;48.808;9.182;2023-08-12T07:49:33;8.30;;;5.32;;
146;SDS011;45999;48.808;9.182;2023-08-12T07:52:00;5.40;;;4.90;;
146;SDS011;45999;48.808;9.182;2023-08-12T07:54:26;5.63;;;5.15;;
146;SDS011;45999;48.808;9.182;2023-08-12T07:56:52;5.07;;;4.57;;
146;SDS011;45999;48.808;9.182;2023-08-12T07:59:19;5.32;;;4.90;;
146;SDS011;45999;48.808;9.182;2023-08-12T08:01:46;5.15;;;4.65;;
146;SDS011;45999;48.808;9.182;2023-08-12T08:04:13;5.80;;;4.85;;
146;SDS011;45999;48.808;9.182;2023-08-12T08:06:39;5.28;;;4.78;;
146;SDS011;45999;48.808;9.182;2023-08-12T08:09:05;5.10;;;4.50;;
146;SDS011;45999;48.808;9.182;2023-08-12T08:11:32;5.72;;;4.85;;
146;SDS011;45999;48.808;9.182;2023-08-12T08:13:59;5.30;;;4.80;;
146;SDS011;45999;48.808;9.182;2023-08-12T08:16:25;5.28;;;4.78;;
146;SDS011;45999;48.808;9.182;2023-08-12T08:18:52;5.57;;;4.85;;
146;SDS011;45999;48.808;9.182;2023-08-12T08:21:18;5.03;;;4.63;;
146;SDS011;45999;48.808;9.182;2023-08-12T08:23:45;6.30;;;4.60;;
146;SDS011;45999;48.808;9.182;2023-08-12T08:26:11;5.93;;;4.70;;
146;SDS011;45999;48.808;9.182;2023-08-12T08:28:40;6.05;;;4.60;;
146;SDS011;45999;48.808;9.182;2023-08-12T08:31:06;6.65;;;4.65;;
146;SDS011;45999;48.808;9.182;2023-08-12T08:33:34;5.25;;;4.80;;
146;SDS011;45999;48.808;9.182;2023-08-12T08:36:00;4.63;;;4.22;;
146;SDS011;45999;48.808;9.182;2023-08-12T08:38:27;6.40;;;4.75;;
146;SDS011;45999;48.808;9.182;2023-08-12T08:40:53;5.43;;;4.68;;
146;SDS011;45999;48.808;9.182;2023-08-12T08:43:22;4.78;;;4.38;;
146;SDS011;45999;48.808;9.182;2023-08-12T08:45:53;5.03;;;4.63;;
146;SDS011;45999;48.808;9.182;2023-08-12T08:48:20;4.75;;;4.35;;
146;SDS011;45999;48.808;9.182;2023-08-12T08:50:48;5.43;;;4.82;;
146;SDS011;45999;48.808;9.182;2023-08-12T08:53:16;5.22;;;4.55;;
146;SDS011;45999;48.808;9.182;2023-08-12T08:55:44;6.47;;;4.60;;
146;SDS011;45999;48.808;9.182;2023-08-12T08:58:10;5.18;;;4.22;;
146;SDS011;45999;48.808;9.182;2023-08-12T09:00:37;5.57;;;4.97;;
146;SDS011;45999;48.808;9.182;2023-08-12T09:03:04;6.20;;;4.40;;
146;SDS011;45999;48.808;9.182;2023-08-12T09:05:31;4.88;;;4.47;;
146;SDS011;45999;48.808;9.182;2023-08-12T09:08:00;5.88;;;4.72;;
146;SDS011;45999;48.808;9.182;2023-08-12T09:10:27;4.28;;;3.97;;
146;SDS011;45999;48.808;9.182;2023-08-12T09:12:55;6.32;;;4.32;;
146;SDS011;45999;48.808;9.182;2023-08-12T09:15:21;5.60;;;4.68;;
146;SDS011;45999;48.808;9.182;2023-08-12T09:17:49;4.95;;;4.40;;
146;SDS011;45999;48.808;9.182;2023-08-12T09:20:15;5.03;;;4.40;;
146;SDS011;45999;48.808;9.182;2023-08-12T09:22:41;4.82;;;4.40;;
146;SDS011;45999;48.808;9.182;2023-08-12T09:25:09;8.23;;;4.30;;
146;SDS011;45999;48.808;9.182;2023-08-12T09:27:36;4.70;;;4.03;;
146;SDS011;45999;48.808;9.182;2023-08-12T09:30:03;7.13;;;4.45;;
146;SDS011;45999;48.808;9.182;2023-08-12T09:32:31;5.00;;;4.35;;
146;SDS011;45999;48.808;9.182;2023-08-12T09:34:59;5.57;;;4.50;;
146;SDS011;45999;48.808;9.182;2023-08-12T09:37:28;6.43;;;3.83;;
146;SDS011;45999;48.808;9.182;2023-08-12T09:39:54;6.68;;;4.38;;
146;SDS011;45999;48.808;9.182;2023-08-12T09:42:22;7.65;;;4.78;;
146;SDS011;45999;48.808;9.182;2023-08-12T09:44:50;5.70;;;4.35;;
146;SDS011;45999;48.808;9.182;2023-08-12T09:47:16;4.55;;;4.15;;
146;SDS011;45999;48.808;9.182;2023-08-12T09:49:43;4.00;;;3.70;;
146;SDS011;45999;48.808;9.182;2023-08-12T09:52:09;6.80;;;3.88;;
146;SDS011;45999;48.808;9.182;2023-08-12T09:54:35;5.82;;;3.83;;
146;SDS011;45999;48.808;9.182;2023-08-12T09:57:02;6.90;;;3.72;;
146;SDS011;45999;48.808;9.182;2023-08-12T09:59:31;5.82;;;3.80;;
146;SDS011;45999;48.808;9.182;2023-08-12T10:02:00;3.92;;;3.45;;
146;SDS011;45999;48.808;9.182;2023-08-12T10:04:29;4.22;;;3.85;;
146;SDS011;45999;48.808;9.182;2023-08-12T10:07:02;4.93;;;3.90;;
146;SDS011;45999;48.808;9.182;2023-08-12T10:09:31;4.43;;;3.75;;
146;SDS011;45999;48.808;9.182;2023-08-12T10:11:58;6.72;;;4.20;;
146;SDS011;45999;48.808;9.182;2023-08-12T10:14:25;5.15;;;4.47;;
146;SDS011;45999;48.808;9.182;2023-08-12T10:16:52;5.38;;;4.32;;
146;SDS011;45999;48.808;9.182;2023-08-12T10:19:19;4.65;;;4.25;;
146;SDS011;45999;48.808;9.182;2023-08-12T10:21:48;5.10;;;4.57;;
146;SDS011;45999;48.808;9.182;2023-08-12T10:24:16;4.53;;;4.00;;
146;SDS011;45999;48.808;9.182;2023-08-12T10:26:42;3.58;;;3.33;;
146;SDS011;45999;48.808;9.182;2023-08-12T10:29:10;4.47;;;3.25;;
146;SDS011;45999;48.808;9.182;2023-08-12T10:31:38;3.92;;;3.60;;
146;SDS011;45999;48.808;9.182;2023-08-12T10:34:05;5.75;;;3.40;;
146;SDS011;45999;48.808;9.182;2023-08-12T10:36:31;3.13;;;2.90;;
146;SDS011;45999;48.808;9.182;2023-08-12T10:38:59;4.50;;;2.83;;
146;SDS011;45999;48.808;9.182;2023-08-12T10:41:26;3.78;;;3.17;;
146;SDS011;45999;48.808;9.182;2023-08-12T10:46:28;3.42;;;3.13;;
146;SDS011;45999;48.808;9.182;2023-08-12T10:51:50;2.70;;;2.50;;
146;SDS011;45999;48.808;9.182;2023-08-12T10:54:22;3.28;;;3.05;;
146;SDS011;45999;48.808;9.182;2023-08-12T11:02:26;3.28;;;2.97;;
146;SDS011;45999;48.808;9.182;2023-08-12T11:05:00;3.85;;;2.85;;
146;SDS011;45999;48.808;9.182;2023-08-12T11:07:37;3.83;;;2.80;;
146;SDS011;45999;48.808;9.182;2023-08-12T11:12:47;4.13;;;2.65;;
146;SDS011;45999;48.808;9.182;2023-08-12T11:15:19;3.53;;;3.00;;
146;SDS011;45999;48.808;9.182;2023-08-12T11:18:12;3.53;;;2.70;;
146;SDS011;45999;48.808;9.182;2023-08-12T11:20:41;3.40;;;3.00;;
146;SDS011;45999;48.808;9.182;2023-08-12T11:23:09;4.57;;;3.00;;
146;SDS011;45999;48.808;9.182;2023-08-12T11:25:36;4.10;;;3.13;;
146;SDS011;45999;48.808;9.182;2023-08-12T11:28:04;3.15;;;2.90;;
146;SDS011;45999;48.808;9.182;2023-08-12T11:30:31;2.75;;;2.55;;
146;SDS011;45999;48.808;9.182;2023-08-12T11:32:58;3.40;;;2.80;;
146;SDS011;45999;48.808;9.182;2023-08-12T11:35:26;2.92;;;2.72;;
146;SDS011;45999;48.808;9.182;2023-08-12T11:37:55;3.20;;;2.92;;
146;SDS011;45999;48.808;9.182;2023-08-12T11:40:23;3.20;;;2.90;;
146;SDS011;45999;48.808;9.182;2023-08-12T11:42:50;5.45;;;2.58;;
146;SDS011;45999;48.808;9.182;2023-08-12T11:45:19;2.92;;;2.72;;
146;SDS011;45999;48.808;9.182;2023-08-12T11:47:46;3.30;;;2.88;;
146;SDS011;45999;48.808;9.182;2023-08-12T11:50:17;5.22;;;2.78;;
146;SDS011;45999;48.808;9.182;2023-08-12T11:52:45;2.72;;;2.53;;
146;SDS011;45999;48.808;9.182;2023-08-12T11:55:13;3.90;;;2.83;;
146;SDS011;45999;48.808;9.182;2023-08-12T11:57:40;3.30;;;2.72;;
146;SDS011;45999;48.808;9.182;2023-08-12T12:00:08;6.13;;;3.58;;
146;SDS011;45999;48.808;9.182;2023-08-12T12:02:45;5.10;;;3.20;;
146;SDS011;45999;48.808;9.182;2023-08-12T12:05:21;4.88;;;3.15;;
146;SDS011;45999;48.808;9.182;2023-08-12T12:07:49;3.03;;;2.80;;
146;SDS011;45999;48.808;9.182;2023-08-12T12:10:20;4.38;;;2.40;;
146;SDS011;45999;48.808;9.182;2023-08-12T12:12:52;7.38;;;2.75;;
146;SDS011;45999;48.808;9.182;2023-08-12T12:15:20;2.58;;;2.38;;
146;SDS011;45999;48.808;9.182;2023-08-12T12:17:47;6.53;;;2.83;;
146;SDS011;45999;48.808;9.182;2023-08-12T12:20:16;3.00;;;2.63;;
146;SDS011;45999;48.808;9.182;2023-08-12T12:22:43;2.65;;;2.28;;
146;SDS011;45999;48.808;9.182;2023-08-12T12:25:11;4.72;;;2.50;;
146;SDS011;45999;48.808;9.182;2023-08-12T12:27:39;4.03;;;2.47;;
146;SDS011;45999;48.808;9.182;2023-08-12T12:30:07;4.25;;;2.53;;
146;SDS011;45999;48.808;9.182;2023-08-12T12:32:35;6.60;;;2.67;;
146;SDS011;45999;48.808;9.182;2023-08-12T12:35:02;4.00;;;2.78;;
146;SDS011;45999;48.808;9.182;2023-08-12T12:37:29;5.15;;;2.75;;
146;SDS011;45999;48.808;9.182;2023-08-12T12:39:56;4.22;;;3.25;;
146;SDS011;45999;48.808;9.182;2023-08-12T12:42:22;5.13;;;3.30;;
146;SDS011;45999;48.808;9.182;2023-08-12T12:44:49;5.13;;;3.33;;
146;SDS011;45999;48.808;9.182;2023-08-12T12:47:15;7.35;;;3.65;;
146;SDS011;45999;48.808;9.182;2023-08-12T12:49:43;5.05;;;4.18;;
146;SDS011;45999;48.808;9.182;2023-08-12T12:52:11;6.28;;;3.58;;
146;SDS011;45999;48.808;9.182;2023-08-12T12:54:38;6.63;;;4.22;;
146;SDS011;45999;48.808;9.182;2023-08-12T12:57:04;7.25;;;4.88;;
146;SDS011;45999;48.808;9.182;2023-08-12T12:59:31;6.30;;;4.65;;
146;SDS011;45999;48.808;9.182;2023-08-12T13:01:57;6.28;;;5.13;;
146;SDS011;45999;48.808;9.182;2023-08-12T13:04:24;6.13;;;4.20;;
146;SDS011;45999;48.808;9.182;2023-08-12T13:06:50;5.10;;;4.60;;
146;SDS011;45999;48.808;9.182;2023-08-12T13:09:17;8.35;;;5.35;;
146;SDS011;45999;48.808;9.182;2023-08-12T13:11:43;6.28;;;5.68;;
146;SDS011;45999;48.808;9.182;2023-08-12T13:14:09;7.10;;;5.57;;
146;SDS011;45999;48.808;9.182;2023-08-12T13:16:36;7.45;;;5.22;;
146;SDS011;45999;48.808;9.182;2023-08-12T13:19:02;6.05;;;5.22;;
146;SDS011;45999;48.808;9.182;2023-08-12T13:21:29;6.28;;;5.65;;
146;SDS011;45999;48.808;9.182;2023-08-12T13:23:55;8.18;;;5.22;;
146;SDS011;45999;48.808;9.182;2023-08-12T13:26:21;6.93;;;4.63;;
146;SDS011;45999;48.808;9.182;2023-08-12T13:28:48;5.70;;;4.93;;
146;SDS011;45999;48.808;9.182;2023-08-12T13:31:14;5.18;;;4.68;;
146;SDS011;45999;48.808;9.182;2023-08-12T13:33:41;6.05;;;5.32;;
146;SDS011;45999;48.808;9.182;2023-08-12T13:36:07;4.95;;;4.32;;
146;SDS011;45999;48.808;9.182;2023-08-12T13:38:33;6.05;;;4.45;;
146;SDS011;45999;48.808;9.182;2023-08-12T13:41:00;6.18;;;5.00;;
146;SDS011;45999;48.808;9.182;2023-08-12T13:43:26;7.45;;;5.03;;
146;SDS011;45999;48.808;9.182;2023-08-12T13:45:53;5.90;;;5.40;;
146;SDS011;45999;48.808;9.182;2023-08-12T13:48:19;7.47;;;4.85;;
146;SDS011;45999;48.808;9.182;2023-08-12T13:50:45;6.03;;;5.35;;
146;SDS011;45999;48.808;9.182;2023-08-12T13:53:14;5.63;;;4.88;;
146;SDS011;45999;48.808;9.182;2023-08-12T13:55:41;5.57;;;5.07;;
146;SDS011;45999;48.808;9.182;2023-08-12T13:58:07;6.78;;;4.85;;
146;SDS011;45999;48.808;9.182;2023-08-12T14:00:33;5.55;;;5.00;;
146;SDS011;45999;48.808;9.182;2023-08-12T14:03:00;5.32;;;4.68;;
146;SDS011;45999;48.808;9.182;2023-08-12T14:05:26;6.03;;;5.07;;
146;SDS011;45999;48.808;9.182;2023-08-12T14:07:53;6.38;;;4.75;;
146;SDS011;45999;48.808;9.182;2023-08-12T14:10:19;5.53;;;4.60;;
146;SDS011;45999;48.808;9.182;2023-08-12T14:12:45;4.95;;;4.53;;
146;SDS011;45999;48.808;9.182;2023-08-12T14:15:13;5.90;;;4.78;;
146;SDS011;45999;48.808;9.182;2023-08-12T14:17:39;5.35;;;4.90;;
146;SDS011;45999;48.808;9.182;2023-08-12T14:20:06;7.25;;;5.00;;
146;SDS011;45999;48.808;9.182;2023-08-12T14:22:34;6.45;;;5.07;;
146;SDS011;45999;48.808;9.182;2023-08-12T14:25:02;5.82;;;4.57;;
146;SDS011;45999;48.808;9.182;2023-08-12T14:27:29;16.00;;;6.47;;
146;SDS011;45999;48.808;9.182;2023-08-12T14:29:56;6.43;;;4.97;;
146;SDS011;45999;48.808;9.182;2023-08-12T14:32:22;6.30;;;4.30;;
146;SDS011;45999;48.808;9.182;2023-08-12T14:34:48;5.80;;;4.30;;
146;SDS011;45999;48.808;9.182;2023-08-12T14:37:15;4.43;;;4.03;;
146;SDS011;45999;48.808;9.182;2023-08-12T14:39:41;5.93;;;4.32;;
146;SDS011;45999;48.808;9.182;2023-08-12T14:42:07;7.88;;;5.30;;
146;SDS011;45999;48.808;9.182;2023-08-12T14:44:35;6.15;;;4.85;;
146;SDS011;45999;48.808;9.182;2023-08-12T14:47:01;5.80;;;4.40;;
146;SDS011;45999;48.808;9.182;2023-08-12T14:49:28;5.05;;;4.40;;
146;SDS011;45999;48.808;9.182;2023-08-12T14:51:55;5.93;;;4.63;;
146;SDS011;45999;48.808;9.182;2023-08-12T14:54:22;5.10;;;4.45;;
146;SDS011;45999;48.808;9.182;2023-08-12T14:56:48;14.23;;;5.28;;
146;SDS011;45999;48.808;9.182;2023-08-12T14:59:14;11.23;;;4.85;;
146;SDS011;45999;48.808;9.182;2023-08-12T15:01:41;6.50;;;4.72;;
146;SDS011;45999;48.808;9.182;2023-08-12T15:04:08;5.80;;;4.60;;
146;SDS011;45999;48.808;9.182;2023-08-12T15:06:34;4.88;;;3.85;;
146;SDS011;45999;48.808;9.182;2023-08-12T15:09:00;4.25;;;3.88;;
146;SDS011;45999;48.808;9.182;2023-08-12T15:11:27;4.03;;;3.55;;
146;SDS011;45999;48.808;9.182;2023-08-12T15:13:54;4.60;;;3.75;;
146;SDS011;45999;48.808;9.182;2023-08-12T15:16:20;3.65;;;2.90;;
146;SDS011;45999;48.808;9.182;2023-08-12T15:18:46;4.82;;;3.67;;
146;SDS011;45999;48.808;9.182;2023-08-12T15:21:13;6.15;;;4.10;;
146;SDS011;45999;48.808;9.182;2023-08-12T15:23:41;4.78;;;3.92;;
146;SDS011;45999;48.808;9.182;2023-08-12T15:26:07;7.13;;;3.83;;
146;SDS011;45999;48.808;9.182;2023-08-12T15:28:33;3.78;;;3.33;;
146;SDS011;45999;48.808;9.182;2023-08-12T15:31:01;5.15;;;3.55;;